Bango, Nevada Weather observations

Data are for 10 minute period ending at time listed.
 Day   Time    Ave.   Ave.  Ave.  Vector   Max.   Stn.    Total    Solar   Ave.  
  of    of     Air    Rel.  Wind   Wind    Wind   Baro.  Precip.   Rad.    Soil  
Year   Day     Temp.  Hum.  Speed  Dir.    Gust   Pres.                    Temp. 
2016   (PST)    F      %     mph   deg.    mph     mb.     in.     W/m2     F    
--------------------------------------------------------------------------------- 
 144    7:30   52.2    46   11.8   308     15.8   871.3    0.00     511    17.8  
 144    7:40   52.6    44   11.4   303     16.7   871.3    0.00     546    17.8  
 144    7:50   52.7    42   10.4   300     14.9   871.3    0.00     581    17.7  
 144    8:00   53.1    40    8.8   304     13.2   871.2    0.00     616    17.7  
 144    8:10   53.4    38    8.7   318     13.2   871.1    0.00     622    17.6  
 144    8:20   54.0    36    5.9   325     11.4   871.2    0.00     678    17.6  
 144    8:30   54.5    34    6.7   334     12.3   871.1    0.00     708    17.6  
 144    8:40   55.2    32    5.7   344     11.4   871.0    0.00     737    17.6  
 144    8:50   55.7    31    4.0   308      9.6   870.9    0.00     765    17.6  
 144    9:00   55.9    31    4.8     8     10.5   870.9    0.00     789    17.6  
 144    9:10   56.3    31    7.5   337     12.3   870.9    0.00     812    17.6  
 144    9:20   56.0    31    4.0    19      9.6   870.9    0.00     856    17.6  
 144    9:30   57.5    29    2.7    82      6.9   870.8    0.00     897    17.6  
 144    9:40   58.3    29    5.0   150      9.6   870.8    0.00     796    17.6  
 144    9:50   57.3    30    4.2   324      6.9   870.8    0.00     585    17.7  
 144   10:00   57.5    29    4.2    81      6.9   870.7    0.00     660    17.8  
 144   10:10   57.5    30    4.8     1      8.7   870.6    0.00     670    17.8  
 144   10:20   58.8    29    3.2   166      5.1   870.6    0.00     684    17.9  
 144   10:30   59.2    28    4.4    93      6.9   870.5    0.00     529    18.0  
 144   10:40   58.4    29    5.1    28     11.4   870.5    0.00     627    18.1  
 144   10:50   59.1    28    4.6   174     11.4   870.3    0.00     632    18.2  
 144   11:00   59.4    28    3.0   270      8.7   870.2    0.00     793    18.4  
 144   11:10   59.9    27    3.4   159      7.8   870.2    0.00     895    18.5  
 144   11:20   61.2    23    4.2   179     10.5   870.1    0.00     905    18.6  
 144   11:30   60.9    24    8.2   192     14.9   870.0    0.00     739    18.8  
 144   11:40   60.8    25   10.8   202     16.7   869.9    0.00     869    18.9  
 144   11:50   61.5    24    7.2   205     14.1   869.8    0.00     873    19.0  
 144   12:00   61.4    23    9.4   195     14.9   869.7    0.00     743    19.1  
 144   12:10   61.9    23    6.8   216     12.3   869.6    0.00     821    19.3  
 144   12:20   62.0    22    7.2   219     14.9   869.5    0.00     805    19.4  
 144   12:30   62.6    21    6.4   235     13.2   869.4    0.00     769    19.5  
 144   12:40   62.4    22    7.5   290     13.2   869.3    0.00     698    19.7  
 144   12:50   62.1    22    5.6   259     11.4   869.2    0.00     805    19.9  
 144   13:00   64.2    21    5.5     9     14.1   869.0    0.00    1027    20.0  
 144   13:10   62.9    21    6.6   345     13.2   869.0    0.00     721    20.2  
 144   13:20   63.4    21    6.5   355     11.4   868.9    0.00     792    20.3  
 144   13:30   63.3    20    4.4   125      7.8   868.8    0.00     595    20.5  
 144   13:40   65.0    20    6.0    20     15.8   868.7    0.00     742    20.6  
 144   13:50   63.8    21    7.5     9     14.9   868.7    0.00     763    20.8  
 144   14:00   63.8    21    7.7    29     11.4   868.6    0.00     951    20.9  
 144   14:10   64.9    21    7.4    42     14.9   868.5    0.00     636    21.1  
 144   14:20   64.5    21    7.1    25     10.5   868.5    0.00     595    21.2  
 144   14:30   64.8    21    6.0   349     14.9   868.4    0.00     698    21.4  
 144   14:40   65.0    21    5.7    25     14.1   868.2    0.00     568    21.5  
 144   14:50   65.2    21   10.2   326     16.7   868.1    0.00     557    21.7  
 144   15:00   64.9    21   12.9   325     20.3   868.0    0.00     483    21.8  
 144   15:10   64.6    21   10.7   355     19.4   868.0    0.00     411    22.0  
 144   15:20   64.7    22   12.9   320     20.3   867.9    0.00     418    22.1  
 144   15:30   64.8    22   10.8   326     17.6   867.8    0.00     426    22.3  
 144   15:40   65.0    21   11.7   336     16.7   867.8    0.00     351    22.4  
 144   15:50   64.6    22    9.6   344     15.8   867.7    0.00     382    22.5  
 144   16:00   65.0    21    9.9   337     18.5   867.6    0.00     495    22.6  
 144   16:10   65.8    21    9.2   348     18.5   867.6    0.00     603    22.8  
 144   16:20   66.1    21   12.9   337     21.2   867.5    0.00     504    22.9  
 144   16:30   65.9    21   13.6   302     20.3   867.5    0.00     587    23.0  
 144   16:40   66.2    22   11.6   318     20.3   867.4    0.00     587    23.0  
 144   16:50   66.1    22   14.4   331     23.9   867.3    0.00     587    23.1  
 144   17:00   66.1    22   13.8   327     20.3   867.3    0.00     540    23.2  
 144   17:10   65.6    23   16.5   326     25.7   867.1    0.00     462    23.3  
 144   17:20   65.2    23   15.1   313     22.1   867.1    0.00     353    23.3  
 144   17:30   64.5    24   17.1   312     23.9   867.1    0.00     219    23.4  
 144   17:40   63.7    25   16.8   311     23.9   867.1    0.00     218    23.5  
 144   17:50   63.6    25   15.9   318     22.1   867.2    0.00     248    23.5  
 144   18:00   62.9    26   15.5   315     23.0   867.3    0.00     123    23.6  
 144   18:10   62.3    26   18.3   315     24.8   867.3    0.00      88    23.6  
 144   18:20   61.9    27   16.8   314     23.0   867.3    0.00      66    23.7  
 144   18:30   61.4    27   17.7   312     22.1   867.3    0.00      48    23.7  
 144   18:40   61.0    28   17.0   309     22.1   867.2    0.00      29    23.7  
 144   18:50   60.6    29   16.0   307     21.2   867.3    0.00      18    23.7  
 144   19:00   60.0    30   17.4   306     23.0   867.3    0.00      11    23.7  
 144   19:10   59.5    30   15.4   305     19.4   867.3    0.00       5    23.7  
 144   19:20   59.2    31   16.3   307     23.0   867.3    0.00       2    23.7  
 144   19:30   58.5    36   16.5   290     23.9   867.4    0.00       1    23.7  
 144   19:40   57.8    40   16.7   284     23.0   867.5    0.00       0    23.7  
 144   19:50   57.5    42   15.8   287     20.3   867.6    0.00       0    23.6  
 144   20:00   57.1    44   15.9   285     21.2   867.6    0.00       0    23.6  
 144   20:10   56.9    45   16.5   285     22.1   867.7    0.00       0    23.5  
 144   20:20   56.9    45   16.0   284     22.1   867.8    0.00       0    23.5  
 144   20:30   56.9    45   15.3   284     20.3   867.9    0.00       0    23.5  
 144   20:40   56.9    44   14.8   282     20.3   867.9    0.00       0    23.4  
 144   20:50   56.8    44   14.1   277     18.5   868.0    0.00       0    23.3  
 144   21:00   56.4    45   12.2   270     16.7   868.1    0.00       0    23.3  
 144   21:10   56.3    45   10.3   258     14.1   868.2    0.00       0    23.2  
 144   21:20   56.2    46   10.8   239     14.1   868.3    0.00       0    23.1  
 144   21:30   56.2    46   12.9   234     16.7   868.3    0.00       0    23.1  
 144   21:40   55.9    46   13.6   240     17.6   868.3    0.00       0    23.0  
 144   21:50   55.9    46   13.8   249     17.6   868.3    0.00       0    22.9  
 144   22:00   56.0    45   14.5   253     17.6   868.2    0.00       0    22.9  
 144   22:10   55.8    46   13.5   248     18.5   868.2    0.00       0    22.8  
 144   22:20   55.8    46   11.0   247     14.9   868.3    0.00       0    22.7  
 144   22:30   55.7    46   11.2   245     14.9   868.3    0.00       0    22.6  
 144   22:40   55.5    46   11.1   244     16.7   868.4    0.00       0    22.6  
 144   22:50   55.4    46    9.6   233     13.2   868.5    0.00       0    22.5  
 144   23:00   54.5    50   10.8   203     14.9   868.6    0.00       0    22.4  
 144   23:10   53.9    52   11.0   199     14.1   868.7    0.00       0    22.4  
 144   23:20   53.5    53   12.3   206     15.8   868.7    0.00       0    22.3  
 144   23:30   53.5    53   12.8   216     15.8   868.8    0.00       0    22.2  
 144   23:40   53.4    53   12.5   229     16.7   868.8    0.00       0    22.2  
 144   23:50   53.2    54   11.4   226     14.9   868.8    0.00       0    22.1  
 145    0:00   53.1    54   12.7   221     17.6   868.7    0.00       0    22.0  
 145    0:10   52.2    57   14.7   222     18.5   868.7    0.00       0    22.0  
 145    0:20   51.7    58   16.1   226     20.3   868.7    0.00       0    21.9  
 145    0:30   51.4    59   18.2   228     24.8   868.7    0.00       0    21.8  
 145    0:40   51.1    60   15.7   230     20.3   868.7    0.00       0    21.8  
 145    0:50   51.0    60   13.9   228     17.6   868.8    0.00       0    21.7  
 145    1:00   51.0    60   13.9   228     18.5   868.7    0.00       0    21.6  
 145    1:10   51.1    60   14.1   229     17.6   868.6    0.00       0    21.6  
 145    1:20   51.0    60   13.6   226     16.7   868.6    0.00       0    21.5  
 145    1:30   51.0    60   14.4   232     18.5   868.6    0.00       0    21.4  
 145    1:40   50.9    61   15.1   226     18.5   868.6    0.00       0    21.4  
 145    1:50   50.4    63   14.1   223     16.7   868.6    0.00       0    21.3  
 145    2:00   49.6    66   14.8   224     17.6   868.6    0.00       0    21.2  
 145    2:10   49.3    67   15.1   226     20.3   868.6    0.00       0    21.1  
 145    2:20   49.0    68   14.4   225     18.5   868.7    0.00       0    21.1  
 145    2:30   48.8    68   15.4   225     19.4   868.6    0.00       0    21.0  
 145    2:40   48.9    67   15.4   221     19.4   868.6    0.00       0    20.9  
 145    2:50   48.9    67   15.2   228     19.4   868.5    0.00       0    20.9  
 145    3:00   49.1    66   13.1   233     18.5   868.5    0.00       0    20.8  
 145    3:10   49.2    66   13.1   231     17.6   868.6    0.00       0    20.7  
 145    3:20   49.2    66   15.2   220     18.5   868.6    0.00       0    20.6  
 145    3:30   49.2    65   14.8   214     22.1   868.6    0.00       0    20.6  
 145    3:40   49.0    65   13.2   212     15.8   868.7    0.00       0    20.5  
 145    3:50   48.8    66   13.3   211     17.6   868.8    0.00       0    20.5  
 145    4:00   48.7    66   14.0   210     17.6   868.8    0.00       0    20.4  
 145    4:10   48.6    66   13.2   206     16.7   868.8    0.00       0    20.3  
 145    4:20   48.7    66   13.6   205     16.7   869.0    0.00       0    20.2  
 145    4:30   48.7    68   13.8   211     18.5   869.0    0.00       0    20.2  
 145    4:40   48.3    71   17.0   221     21.2   868.9    0.00       1    20.1  
 145    4:50   47.9    72   17.2   220     20.3   868.8    0.00       5    20.0  
 145    5:00   47.9    71   15.6   225     19.4   868.9    0.00      17    20.0  
 145    5:10   48.0    70   13.1   228     17.6   869.0    0.00      22    19.9  
 145    5:20   48.2    69   13.3   227     16.7   869.0    0.00      25    19.9  
 145    5:30   48.3    68   14.0   230     18.5   869.0    0.00      28    19.8  
 145    5:40   48.4    67   15.3   237     18.5   869.0    0.00      34    19.7  
 145    5:50   48.6    66   15.0   237     18.5   869.0    0.00      53    19.7  
 145    6:00   49.1    65   14.9   239     19.4   869.1    0.00      62    19.6  
 145    6:10   49.9    63   14.1   243     17.6   869.0    0.00      87    19.5  
 145    6:20   50.9    60   12.1   238     15.8   869.1    0.00     112    19.5  
 145    6:30   51.7    59    9.4   256     14.1   869.3    0.00     131    19.4  
 145    6:40   52.3    58    8.5   259     12.3   869.3    0.00     124    19.4  
 145    6:50   52.5    58    8.8   275     14.1   869.4    0.00     107    19.3  
 145    7:00   52.5    58   11.1   277     16.7   869.4    0.00     101    19.3  
 145    7:10   52.6    58    9.0   274     13.2   869.5    0.00     110    19.2  
 145    7:20   52.8    58    9.6   288     14.9   869.5    0.00     111    19.2  

Return to Garden Spring, Nevada graphs page.


Western Regional Climate Center,wrcc@dri.edu